KHON

Huron Regional Airport

Huron, South Dakota, USA
METAR KHON 170752Z AUTO 00000KT 1/4SM FZFG VV002 M01/M01 A3007 RMK AO2
Observed Flight Rules
Dec-17 @ 07:52 UTC (18 minutes ago) Instrument Flight Rules
Wind Visibility Clouds Conditions
Calm 1/4 miles
  • Vertical visibility at 200' AGL
  • Freezing
  • Fog
Temperatures Readings
Current -1°C / 30°F
Dewpoint -1°C / 30°F
Humidity 100%
Altimeter 30.07" Hg
Pressure 1018 hPa
Elevation 390
METAR KHON 170752Z AUTO 00000KT 1/4SM FZFG VV002 M01/M01 A3007 RMK AO2
Observed Flight Rules
Dec-17 @ 07:52 UTC
(18 minutes ago)
LIFR
Wind Visibility
Calm 1/4 miles
Clouds
  • Vertical visibility at 200' AGL
Conditions
  • Freezing
  • Fog
Temperature Dewpoint
-1°C / 30°F -1°C / 30°F
Humidity Altimeter Pressure
100% 30.07" Hg 1018 hPa